sensor_id;sensor_type;location;lat;lon;timestamp;P1;durP1;ratioP1;P2;durP2;ratioP2
9888;SDS011;4983;42.112;24.738;2023-08-20T00:01:34;7.07;;;5.73;;
9888;SDS011;4983;42.112;24.738;2023-08-20T00:04:01;7.80;;;6.13;;
9888;SDS011;4983;42.112;24.738;2023-08-20T00:06:30;7.33;;;6.00;;
9888;SDS011;4983;42.112;24.738;2023-08-20T00:08:58;7.17;;;5.43;;
9888;SDS011;4983;42.112;24.738;2023-08-20T00:11:25;6.77;;;5.70;;
9888;SDS011;4983;42.112;24.738;2023-08-20T00:13:52;9.70;;;5.70;;
9888;SDS011;4983;42.112;24.738;2023-08-20T00:16:19;7.43;;;5.77;;
9888;SDS011;4983;42.112;24.738;2023-08-20T00:18:47;7.23;;;5.47;;
9888;SDS011;4983;42.112;24.738;2023-08-20T00:21:14;6.03;;;5.43;;
9888;SDS011;4983;42.112;24.738;2023-08-20T00:23:43;7.90;;;5.60;;
9888;SDS011;4983;42.112;24.738;2023-08-20T00:26:10;5.83;;;5.00;;
9888;SDS011;4983;42.112;24.738;2023-08-20T00:28:38;8.10;;;5.80;;
9888;SDS011;4983;42.112;24.738;2023-08-20T00:31:05;7.17;;;5.07;;
9888;SDS011;4983;42.112;24.738;2023-08-20T00:33:33;8.37;;;5.60;;
9888;SDS011;4983;42.112;24.738;2023-08-20T00:36:00;7.57;;;5.97;;
9888;SDS011;4983;42.112;24.738;2023-08-20T00:38:28;8.20;;;5.50;;
9888;SDS011;4983;42.112;24.738;2023-08-20T00:40:57;6.90;;;5.33;;
9888;SDS011;4983;42.112;24.738;2023-08-20T00:43:23;7.37;;;5.30;;
9888;SDS011;4983;42.112;24.738;2023-08-20T00:45:50;5.60;;;5.00;;
9888;SDS011;4983;42.112;24.738;2023-08-20T00:48:18;6.57;;;5.03;;
9888;SDS011;4983;42.112;24.738;2023-08-20T00:50:45;5.70;;;4.87;;
9888;SDS011;4983;42.112;24.738;2023-08-20T00:53:12;5.93;;;4.77;;
9888;SDS011;4983;42.112;24.738;2023-08-20T00:55:41;6.90;;;4.97;;
9888;SDS011;4983;42.112;24.738;2023-08-20T00:58:10;5.73;;;4.73;;
9888;SDS011;4983;42.112;24.738;2023-08-20T01:00:38;6.03;;;4.83;;
9888;SDS011;4983;42.112;24.738;2023-08-20T01:03:05;6.77;;;4.70;;
9888;SDS011;4983;42.112;24.738;2023-08-20T01:05:33;5.20;;;4.47;;
9888;SDS011;4983;42.112;24.738;2023-08-20T01:08:09;8.90;;;5.10;;
9888;SDS011;4983;42.112;24.738;2023-08-20T01:10:47;5.70;;;4.50;;
9888;SDS011;4983;42.112;24.738;2023-08-20T01:13:22;5.83;;;4.80;;
9888;SDS011;4983;42.112;24.738;2023-08-20T01:15:49;6.60;;;5.10;;
9888;SDS011;4983;42.112;24.738;2023-08-20T01:18:16;6.73;;;4.57;;
9888;SDS011;4983;42.112;24.738;2023-08-20T01:20:45;5.47;;;4.57;;
9888;SDS011;4983;42.112;24.738;2023-08-20T01:26:19;7.40;;;4.90;;
9888;SDS011;4983;42.112;24.738;2023-08-20T01:28:54;5.40;;;4.50;;
9888;SDS011;4983;42.112;24.738;2023-08-20T01:31:21;5.60;;;4.17;;
9888;SDS011;4983;42.112;24.738;2023-08-20T01:33:50;6.13;;;4.93;;
9888;SDS011;4983;42.112;24.738;2023-08-20T01:36:17;5.53;;;4.30;;
9888;SDS011;4983;42.112;24.738;2023-08-20T01:38:44;5.90;;;4.53;;
9888;SDS011;4983;42.112;24.738;2023-08-20T01:41:11;6.37;;;4.17;;
9888;SDS011;4983;42.112;24.738;2023-08-20T01:43:38;5.23;;;4.00;;
9888;SDS011;4983;42.112;24.738;2023-08-20T01:46:06;5.03;;;4.23;;
9888;SDS011;4983;42.112;24.738;2023-08-20T01:48:34;7.53;;;4.57;;
9888;SDS011;4983;42.112;24.738;2023-08-20T01:51:01;5.63;;;4.47;;
9888;SDS011;4983;42.112;24.738;2023-08-20T01:53:28;5.00;;;4.53;;
9888;SDS011;4983;42.112;24.738;2023-08-20T01:55:55;4.83;;;4.20;;
9888;SDS011;4983;42.112;24.738;2023-08-20T01:58:22;6.80;;;4.43;;
9888;SDS011;4983;42.112;24.738;2023-08-20T02:00:50;6.37;;;4.57;;
9888;SDS011;4983;42.112;24.738;2023-08-20T02:03:19;6.00;;;4.27;;
9888;SDS011;4983;42.112;24.738;2023-08-20T02:05:46;5.83;;;4.50;;
9888;SDS011;4983;42.112;24.738;2023-08-20T02:08:13;5.43;;;3.90;;
9888;SDS011;4983;42.112;24.738;2023-08-20T02:10:40;5.43;;;4.13;;
9888;SDS011;4983;42.112;24.738;2023-08-20T02:13:07;5.13;;;3.77;;
9888;SDS011;4983;42.112;24.738;2023-08-20T02:15:34;7.23;;;4.60;;
9888;SDS011;4983;42.112;24.738;2023-08-20T02:18:00;6.50;;;4.40;;
9888;SDS011;4983;42.112;24.738;2023-08-20T02:20:29;5.63;;;4.10;;
9888;SDS011;4983;42.112;24.738;2023-08-20T02:22:56;4.30;;;3.80;;
9888;SDS011;4983;42.112;24.738;2023-08-20T02:25:23;6.40;;;4.00;;
9888;SDS011;4983;42.112;24.738;2023-08-20T02:27:51;4.57;;;3.70;;
9888;SDS011;4983;42.112;24.738;2023-08-20T02:30:18;4.77;;;3.70;;
9888;SDS011;4983;42.112;24.738;2023-08-20T02:32:44;4.07;;;3.57;;
9888;SDS011;4983;42.112;24.738;2023-08-20T02:35:11;4.87;;;4.00;;
9888;SDS011;4983;42.112;24.738;2023-08-20T02:37:42;4.40;;;4.00;;
9888;SDS011;4983;42.112;24.738;2023-08-20T02:40:09;3.83;;;3.40;;
9888;SDS011;4983;42.112;24.738;2023-08-20T02:42:38;4.57;;;3.57;;
9888;SDS011;4983;42.112;24.738;2023-08-20T02:45:05;4.67;;;3.30;;
9888;SDS011;4983;42.112;24.738;2023-08-20T02:47:34;4.40;;;3.80;;
9888;SDS011;4983;42.112;24.738;2023-08-20T02:50:01;4.17;;;3.40;;
9888;SDS011;4983;42.112;24.738;2023-08-20T02:52:30;5.13;;;3.83;;
9888;SDS011;4983;42.112;24.738;2023-08-20T02:54:58;5.27;;;3.70;;
9888;SDS011;4983;42.112;24.738;2023-08-20T02:57:25;4.40;;;3.70;;
9888;SDS011;4983;42.112;24.738;2023-08-20T02:59:52;5.07;;;3.90;;
9888;SDS011;4983;42.112;24.738;2023-08-20T03:02:19;5.00;;;3.80;;
9888;SDS011;4983;42.112;24.738;2023-08-20T03:04:46;4.23;;;3.57;;
9888;SDS011;4983;42.112;24.738;2023-08-20T03:07:13;6.50;;;3.80;;
9888;SDS011;4983;42.112;24.738;2023-08-20T03:09:40;4.47;;;3.40;;
9888;SDS011;4983;42.112;24.738;2023-08-20T03:12:08;3.97;;;3.30;;
9888;SDS011;4983;42.112;24.738;2023-08-20T03:14:36;3.47;;;2.93;;
9888;SDS011;4983;42.112;24.738;2023-08-20T03:17:03;4.80;;;3.77;;
9888;SDS011;4983;42.112;24.738;2023-08-20T03:19:33;5.73;;;3.60;;
9888;SDS011;4983;42.112;24.738;2023-08-20T03:22:00;3.90;;;3.20;;
9888;SDS011;4983;42.112;24.738;2023-08-20T03:24:28;5.73;;;3.83;;
9888;SDS011;4983;42.112;24.738;2023-08-20T03:26:56;6.40;;;4.43;;
9888;SDS011;4983;42.112;24.738;2023-08-20T03:29:24;6.53;;;3.50;;
9888;SDS011;4983;42.112;24.738;2023-08-20T03:31:51;4.20;;;3.40;;
9888;SDS011;4983;42.112;24.738;2023-08-20T03:34:18;3.33;;;3.00;;
9888;SDS011;4983;42.112;24.738;2023-08-20T03:36:45;4.90;;;3.37;;
9888;SDS011;4983;42.112;24.738;2023-08-20T03:39:12;5.00;;;3.63;;
9888;SDS011;4983;42.112;24.738;2023-08-20T03:41:39;3.33;;;3.03;;
9888;SDS011;4983;42.112;24.738;2023-08-20T03:44:06;3.67;;;2.80;;
9888;SDS011;4983;42.112;24.738;2023-08-20T03:46:34;3.80;;;3.20;;
9888;SDS011;4983;42.112;24.738;2023-08-20T03:49:01;3.60;;;3.00;;
9888;SDS011;4983;42.112;24.738;2023-08-20T03:51:28;6.97;;;3.97;;
9888;SDS011;4983;42.112;24.738;2023-08-20T03:53:55;3.67;;;3.27;;
9888;SDS011;4983;42.112;24.738;2023-08-20T03:56:22;4.37;;;3.43;;
9888;SDS011;4983;42.112;24.738;2023-08-20T03:58:49;3.43;;;2.90;;
9888;SDS011;4983;42.112;24.738;2023-08-20T04:01:15;4.37;;;3.70;;
9888;SDS011;4983;42.112;24.738;2023-08-20T04:03:44;4.60;;;3.80;;
9888;SDS011;4983;42.112;24.738;2023-08-20T04:06:12;5.20;;;3.50;;
9888;SDS011;4983;42.112;24.738;2023-08-20T04:08:39;5.53;;;3.30;;
9888;SDS011;4983;42.112;24.738;2023-08-20T04:11:06;3.40;;;3.10;;
9888;SDS011;4983;42.112;24.738;2023-08-20T04:13:33;5.03;;;3.43;;
9888;SDS011;4983;42.112;24.738;2023-08-20T04:16:00;4.90;;;3.70;;
9888;SDS011;4983;42.112;24.738;2023-08-20T04:18:27;4.70;;;3.33;;
9888;SDS011;4983;42.112;24.738;2023-08-20T04:20:55;4.40;;;3.40;;
9888;SDS011;4983;42.112;24.738;2023-08-20T04:23:22;3.97;;;3.53;;
9888;SDS011;4983;42.112;24.738;2023-08-20T04:25:50;5.83;;;4.53;;
9888;SDS011;4983;42.112;24.738;2023-08-20T04:28:17;5.50;;;3.83;;
9888;SDS011;4983;42.112;24.738;2023-08-20T04:30:44;7.53;;;3.67;;
9888;SDS011;4983;42.112;24.738;2023-08-20T04:33:11;4.37;;;3.33;;
9888;SDS011;4983;42.112;24.738;2023-08-20T04:35:37;5.93;;;3.70;;
9888;SDS011;4983;42.112;24.738;2023-08-20T04:38:06;9.23;;;4.23;;
9888;SDS011;4983;42.112;24.738;2023-08-20T04:40:33;3.40;;;3.10;;
9888;SDS011;4983;42.112;24.738;2023-08-20T04:43:00;3.90;;;3.40;;
9888;SDS011;4983;42.112;24.738;2023-08-20T04:45:27;3.40;;;3.10;;
9888;SDS011;4983;42.112;24.738;2023-08-20T04:47:54;4.63;;;3.53;;
9888;SDS011;4983;42.112;24.738;2023-08-20T04:50:21;3.53;;;3.20;;
9888;SDS011;4983;42.112;24.738;2023-08-20T04:52:48;4.27;;;3.10;;
9888;SDS011;4983;42.112;24.738;2023-08-20T04:55:16;7.37;;;3.60;;
9888;SDS011;4983;42.112;24.738;2023-08-20T04:57:43;5.97;;;3.30;;
9888;SDS011;4983;42.112;24.738;2023-08-20T05:00:10;3.97;;;3.30;;
9888;SDS011;4983;42.112;24.738;2023-08-20T05:02:38;7.13;;;3.20;;
9888;SDS011;4983;42.112;24.738;2023-08-20T05:05:05;4.57;;;3.60;;
9888;SDS011;4983;42.112;24.738;2023-08-20T05:07:33;4.57;;;3.60;;
9888;SDS011;4983;42.112;24.738;2023-08-20T05:10:00;3.67;;;3.07;;
9888;SDS011;4983;42.112;24.738;2023-08-20T05:12:29;6.70;;;3.40;;
9888;SDS011;4983;42.112;24.738;2023-08-20T05:14:56;3.17;;;2.87;;
9888;SDS011;4983;42.112;24.738;2023-08-20T05:17:22;5.33;;;3.70;;
9888;SDS011;4983;42.112;24.738;2023-08-20T05:19:49;3.37;;;3.07;;
9888;SDS011;4983;42.112;24.738;2023-08-20T05:22:16;3.93;;;3.27;;
9888;SDS011;4983;42.112;24.738;2023-08-20T05:24:43;7.40;;;3.50;;
9888;SDS011;4983;42.112;24.738;2023-08-20T05:27:12;3.43;;;2.93;;
9888;SDS011;4983;42.112;24.738;2023-08-20T05:29:42;3.67;;;2.83;;
9888;SDS011;4983;42.112;24.738;2023-08-20T05:32:10;4.03;;;3.07;;
9888;SDS011;4983;42.112;24.738;2023-08-20T05:34:37;3.97;;;3.57;;
9888;SDS011;4983;42.112;24.738;2023-08-20T05:37:05;4.13;;;3.23;;
9888;SDS011;4983;42.112;24.738;2023-08-20T05:39:36;3.57;;;3.27;;
9888;SDS011;4983;42.112;24.738;2023-08-20T05:42:03;3.73;;;3.33;;
9888;SDS011;4983;42.112;24.738;2023-08-20T05:44:31;4.30;;;3.17;;
9888;SDS011;4983;42.112;24.738;2023-08-20T05:46:59;4.87;;;3.40;;
9888;SDS011;4983;42.112;24.738;2023-08-20T05:49:26;4.73;;;3.43;;
9888;SDS011;4983;42.112;24.738;2023-08-20T05:51:53;5.80;;;3.50;;
9888;SDS011;4983;42.112;24.738;2023-08-20T05:54:20;5.93;;;3.60;;
9888;SDS011;4983;42.112;24.738;2023-08-20T05:56:47;5.00;;;3.97;;
9888;SDS011;4983;42.112;24.738;2023-08-20T05:59:14;4.70;;;3.80;;
9888;SDS011;4983;42.112;24.738;2023-08-20T06:01:41;4.17;;;3.77;;
9888;SDS011;4983;42.112;24.738;2023-08-20T06:04:11;4.37;;;3.50;;
9888;SDS011;4983;42.112;24.738;2023-08-20T06:06:39;5.50;;;3.90;;
9888;SDS011;4983;42.112;24.738;2023-08-20T06:09:06;6.30;;;3.70;;
9888;SDS011;4983;42.112;24.738;2023-08-20T06:11:33;4.83;;;3.93;;
9888;SDS011;4983;42.112;24.738;2023-08-20T06:14:00;5.47;;;3.87;;
9888;SDS011;4983;42.112;24.738;2023-08-20T06:16:28;4.80;;;3.70;;
9888;SDS011;4983;42.112;24.738;2023-08-20T06:18:55;5.73;;;3.80;;
9888;SDS011;4983;42.112;24.738;2023-08-20T06:21:23;5.13;;;3.93;;
9888;SDS011;4983;42.112;24.738;2023-08-20T06:23:50;4.07;;;3.67;;
9888;SDS011;4983;42.112;24.738;2023-08-20T06:26:17;4.70;;;3.70;;
9888;SDS011;4983;42.112;24.738;2023-08-20T06:28:45;5.60;;;4.27;;
9888;SDS011;4983;42.112;24.738;2023-08-20T06:31:14;6.53;;;3.87;;
9888;SDS011;4983;42.112;24.738;2023-08-20T06:33:41;4.17;;;3.70;;
9888;SDS011;4983;42.112;24.738;2023-08-20T06:36:09;5.27;;;3.87;;
9888;SDS011;4983;42.112;24.738;2023-08-20T06:38:38;4.93;;;3.63;;
9888;SDS011;4983;42.112;24.738;2023-08-20T06:41:05;4.47;;;3.60;;
9888;SDS011;4983;42.112;24.738;2023-08-20T06:43:31;6.13;;;4.53;;
9888;SDS011;4983;42.112;24.738;2023-08-20T06:45:58;4.93;;;3.93;;
9888;SDS011;4983;42.112;24.738;2023-08-20T06:48:25;5.83;;;4.10;;
9888;SDS011;4983;42.112;24.738;2023-08-20T06:50:52;5.00;;;3.87;;
9888;SDS011;4983;42.112;24.738;2023-08-20T06:53:19;4.37;;;3.73;;
9888;SDS011;4983;42.112;24.738;2023-08-20T06:55:47;6.83;;;4.43;;
9888;SDS011;4983;42.112;24.738;2023-08-20T06:58:14;5.63;;;4.03;;
9888;SDS011;4983;42.112;24.738;2023-08-20T07:00:41;4.97;;;4.20;;
9888;SDS011;4983;42.112;24.738;2023-08-20T07:03:09;4.57;;;3.80;;
9888;SDS011;4983;42.112;24.738;2023-08-20T07:05:37;5.90;;;4.30;;
9888;SDS011;4983;42.112;24.738;2023-08-20T07:08:06;6.13;;;4.47;;
9888;SDS011;4983;42.112;24.738;2023-08-20T07:10:34;6.47;;;4.30;;
9888;SDS011;4983;42.112;24.738;2023-08-20T07:13:03;3.93;;;3.53;;
9888;SDS011;4983;42.112;24.738;2023-08-20T07:15:30;6.43;;;4.40;;
9888;SDS011;4983;42.112;24.738;2023-08-20T07:17:57;4.93;;;4.10;;
9888;SDS011;4983;42.112;24.738;2023-08-20T07:20:24;6.70;;;4.50;;
9888;SDS011;4983;42.112;24.738;2023-08-20T07:22:51;6.70;;;4.57;;
9888;SDS011;4983;42.112;24.738;2023-08-20T07:25:19;5.57;;;4.80;;
9888;SDS011;4983;42.112;24.738;2023-08-20T07:27:46;5.20;;;4.70;;
9888;SDS011;4983;42.112;24.738;2023-08-20T07:30:14;5.63;;;4.53;;
9888;SDS011;4983;42.112;24.738;2023-08-20T07:32:42;5.97;;;4.70;;
9888;SDS011;4983;42.112;24.738;2023-08-20T07:35:09;5.97;;;4.73;;
9888;SDS011;4983;42.112;24.738;2023-08-20T07:37:36;6.03;;;4.73;;
9888;SDS011;4983;42.112;24.738;2023-08-20T07:40:03;5.70;;;4.63;;
9888;SDS011;4983;42.112;24.738;2023-08-20T07:42:32;5.57;;;4.70;;
9888;SDS011;4983;42.112;24.738;2023-08-20T07:45:01;5.30;;;4.40;;
9888;SDS011;4983;42.112;24.738;2023-08-20T07:47:29;6.37;;;4.90;;
9888;SDS011;4983;42.112;24.738;2023-08-20T07:49:56;6.00;;;5.20;;
9888;SDS011;4983;42.112;24.738;2023-08-20T07:52:23;4.77;;;4.27;;
9888;SDS011;4983;42.112;24.738;2023-08-20T07:54:51;5.27;;;4.77;;
9888;SDS011;4983;42.112;24.738;2023-08-20T07:57:18;7.27;;;5.33;;
9888;SDS011;4983;42.112;24.738;2023-08-20T07:59:46;5.37;;;4.77;;
9888;SDS011;4983;42.112;24.738;2023-08-20T08:02:14;6.03;;;4.37;;
9888;SDS011;4983;42.112;24.738;2023-08-20T08:04:42;6.70;;;4.87;;
9888;SDS011;4983;42.112;24.738;2023-08-20T08:07:09;5.77;;;4.70;;
9888;SDS011;4983;42.112;24.738;2023-08-20T08:09:37;6.60;;;4.53;;
9888;SDS011;4983;42.112;24.738;2023-08-20T08:12:04;5.30;;;4.80;;
9888;SDS011;4983;42.112;24.738;2023-08-20T08:14:31;4.77;;;4.03;;
9888;SDS011;4983;42.112;24.738;2023-08-20T08:16:58;6.83;;;4.70;;
9888;SDS011;4983;42.112;24.738;2023-08-20T08:19:25;4.53;;;4.00;;
9888;SDS011;4983;42.112;24.738;2023-08-20T08:21:53;6.83;;;4.30;;
9888;SDS011;4983;42.112;24.738;2023-08-20T08:24:20;5.30;;;4.27;;
9888;SDS011;4983;42.112;24.738;2023-08-20T08:26:47;4.40;;;3.97;;
9888;SDS011;4983;42.112;24.738;2023-08-20T08:29:15;4.13;;;3.47;;
9888;SDS011;4983;42.112;24.738;2023-08-20T08:31:42;4.50;;;3.73;;
9888;SDS011;4983;42.112;24.738;2023-08-20T08:34:09;6.10;;;3.50;;
9888;SDS011;4983;42.112;24.738;2023-08-20T08:36:35;4.13;;;3.60;;
9888;SDS011;4983;42.112;24.738;2023-08-20T08:39:04;4.03;;;3.63;;
9888;SDS011;4983;42.112;24.738;2023-08-20T08:41:32;3.70;;;3.30;;
9888;SDS011;4983;42.112;24.738;2023-08-20T08:44:01;4.43;;;3.60;;
9888;SDS011;4983;42.112;24.738;2023-08-20T08:46:29;4.17;;;3.33;;
9888;SDS011;4983;42.112;24.738;2023-08-20T08:48:56;3.73;;;3.33;;
9888;SDS011;4983;42.112;24.738;2023-08-20T08:51:25;3.57;;;3.27;;
9888;SDS011;4983;42.112;24.738;2023-08-20T08:53:53;6.00;;;3.17;;
9888;SDS011;4983;42.112;24.738;2023-08-20T08:56:23;3.73;;;3.10;;
9888;SDS011;4983;42.112;24.738;2023-08-20T08:58:50;4.23;;;3.63;;
9888;SDS011;4983;42.112;24.738;2023-08-20T09:01:16;6.97;;;4.00;;
9888;SDS011;4983;42.112;24.738;2023-08-20T09:03:43;4.73;;;3.30;;
9888;SDS011;4983;42.112;24.738;2023-08-20T09:06:10;5.07;;;3.63;;
9888;SDS011;4983;42.112;24.738;2023-08-20T09:08:37;3.83;;;3.47;;
9888;SDS011;4983;42.112;24.738;2023-08-20T09:11:04;4.53;;;3.60;;
9888;SDS011;4983;42.112;24.738;2023-08-20T09:13:35;3.87;;;3.50;;
9888;SDS011;4983;42.112;24.738;2023-08-20T09:16:03;5.20;;;3.27;;
9888;SDS011;4983;42.112;24.738;2023-08-20T09:18:31;5.10;;;3.57;;
9888;SDS011;4983;42.112;24.738;2023-08-20T09:20:58;4.27;;;3.50;;
9888;SDS011;4983;42.112;24.738;2023-08-20T09:23:28;4.27;;;3.73;;
9888;SDS011;4983;42.112;24.738;2023-08-20T09:25:56;3.83;;;3.53;;
9888;SDS011;4983;42.112;24.738;2023-08-20T09:28:23;3.50;;;3.20;;
9888;SDS011;4983;42.112;24.738;2023-08-20T09:31:00;5.10;;;3.80;;
9888;SDS011;4983;42.112;24.738;2023-08-20T09:33:27;5.83;;;3.37;;
9888;SDS011;4983;42.112;24.738;2023-08-20T09:35:54;4.07;;;3.37;;
9888;SDS011;4983;42.112;24.738;2023-08-20T09:38:23;3.53;;;3.10;;
9888;SDS011;4983;42.112;24.738;2023-08-20T09:40:51;4.20;;;3.10;;
9888;SDS011;4983;42.112;24.738;2023-08-20T09:43:23;4.27;;;3.00;;
9888;SDS011;4983;42.112;24.738;2023-08-20T09:45:54;4.00;;;3.20;;
9888;SDS011;4983;42.112;24.738;2023-08-20T09:48:23;6.03;;;3.17;;
9888;SDS011;4983;42.112;24.738;2023-08-20T09:50:56;3.63;;;3.13;;
9888;SDS011;4983;42.112;24.738;2023-08-20T09:53:27;4.57;;;3.30;;
9888;SDS011;4983;42.112;24.738;2023-08-20T09:56:01;3.87;;;3.10;;
9888;SDS011;4983;42.112;24.738;2023-08-20T09:58:35;3.30;;;3.00;;
9888;SDS011;4983;42.112;24.738;2023-08-20T10:01:04;3.77;;;3.37;;
9888;SDS011;4983;42.112;24.738;2023-08-20T10:03:34;3.40;;;3.10;;
9888;SDS011;4983;42.112;24.738;2023-08-20T10:06:02;5.27;;;3.50;;
9888;SDS011;4983;42.112;24.738;2023-08-20T10:08:30;4.33;;;3.00;;
9888;SDS011;4983;42.112;24.738;2023-08-20T10:10:57;5.30;;;3.33;;
9888;SDS011;4983;42.112;24.738;2023-08-20T10:13:24;6.83;;;3.00;;
9888;SDS011;4983;42.112;24.738;2023-08-20T10:15:52;6.33;;;3.30;;
9888;SDS011;4983;42.112;24.738;2023-08-20T10:18:22;4.30;;;3.30;;
9888;SDS011;4983;42.112;24.738;2023-08-20T10:20:51;4.03;;;2.90;;
9888;SDS011;4983;42.112;24.738;2023-08-20T10:23:20;4.30;;;2.83;;
9888;SDS011;4983;42.112;24.738;2023-08-20T10:25:50;4.37;;;3.13;;
9888;SDS011;4983;42.112;24.738;2023-08-20T10:28:19;3.53;;;3.07;;
9888;SDS011;4983;42.112;24.738;2023-08-20T10:31:03;5.97;;;3.20;;
9888;SDS011;4983;42.112;24.738;2023-08-20T10:33:33;3.30;;;3.00;;
9888;SDS011;4983;42.112;24.738;2023-08-20T10:36:08;3.57;;;3.00;;
9888;SDS011;4983;42.112;24.738;2023-08-20T10:38:41;3.43;;;2.80;;
9888;SDS011;4983;42.112;24.738;2023-08-20T10:41:08;3.73;;;2.83;;
9888;SDS011;4983;42.112;24.738;2023-08-20T10:43:36;2.97;;;2.77;;
9888;SDS011;4983;42.112;24.738;2023-08-20T10:46:07;3.27;;;2.97;;
9888;SDS011;4983;42.112;24.738;2023-08-20T10:48:40;3.67;;;3.13;;
9888;SDS011;4983;42.112;24.738;2023-08-20T10:51:09;3.57;;;2.77;;
9888;SDS011;4983;42.112;24.738;2023-08-20T10:53:38;3.57;;;3.00;;
9888;SDS011;4983;42.112;24.738;2023-08-20T10:56:12;3.57;;;2.90;;
9888;SDS011;4983;42.112;24.738;2023-08-20T10:58:43;3.20;;;2.90;;
9888;SDS011;4983;42.112;24.738;2023-08-20T11:01:12;3.50;;;2.90;;
9888;SDS011;4983;42.112;24.738;2023-08-20T11:03:40;7.00;;;3.47;;
9888;SDS011;4983;42.112;24.738;2023-08-20T11:06:09;3.33;;;3.03;;
9888;SDS011;4983;42.112;24.738;2023-08-20T11:08:37;3.77;;;3.30;;
9888;SDS011;4983;42.112;24.738;2023-08-20T11:11:04;3.30;;;3.00;;
9888;SDS011;4983;42.112;24.738;2023-08-20T11:13:31;4.07;;;2.80;;
9888;SDS011;4983;42.112;24.738;2023-08-20T11:15:59;4.00;;;2.90;;
9888;SDS011;4983;42.112;24.738;2023-08-20T11:18:26;3.50;;;3.20;;
9888;SDS011;4983;42.112;24.738;2023-08-20T11:20:53;4.47;;;2.90;;
9888;SDS011;4983;42.112;24.738;2023-08-20T11:23:22;3.50;;;3.20;;
9888;SDS011;4983;42.112;24.738;2023-08-20T11:25:50;3.90;;;2.70;;
9888;SDS011;4983;42.112;24.738;2023-08-20T11:28:17;3.20;;;2.90;;
9888;SDS011;4983;42.112;24.738;2023-08-20T11:30:45;3.13;;;2.83;;
9888;SDS011;4983;42.112;24.738;2023-08-20T11:33:13;3.33;;;3.03;;
9888;SDS011;4983;42.112;24.738;2023-08-20T11:35:41;3.00;;;2.70;;
9888;SDS011;4983;42.112;24.738;2023-08-20T11:38:09;3.27;;;2.90;;
9888;SDS011;4983;42.112;24.738;2023-08-20T11:40:39;12.57;;;3.40;;
9888;SDS011;4983;42.112;24.738;2023-08-20T11:43:06;3.30;;;2.97;;
9888;SDS011;4983;42.112;24.738;2023-08-20T11:45:33;3.30;;;3.00;;
9888;SDS011;4983;42.112;24.738;2023-08-20T11:48:10;3.37;;;3.07;;
9888;SDS011;4983;42.112;24.738;2023-08-20T11:50:36;4.50;;;2.97;;
9888;SDS011;4983;42.112;24.738;2023-08-20T11:53:03;3.50;;;2.93;;
9888;SDS011;4983;42.112;24.738;2023-08-20T11:55:31;3.87;;;2.97;;
9888;SDS011;4983;42.112;24.738;2023-08-20T11:57:59;5.70;;;2.87;;
9888;SDS011;4983;42.112;24.738;2023-08-20T12:00:28;5.40;;;3.07;;
9888;SDS011;4983;42.112;24.738;2023-08-20T12:02:57;3.07;;;2.77;;
9888;SDS011;4983;42.112;24.738;2023-08-20T12:05:26;2.97;;;2.50;;
9888;SDS011;4983;42.112;24.738;2023-08-20T12:07:56;3.50;;;3.00;;
9888;SDS011;4983;42.112;24.738;2023-08-20T12:10:25;4.53;;;2.87;;
9888;SDS011;4983;42.112;24.738;2023-08-20T12:12:55;3.23;;;2.93;;
9888;SDS011;4983;42.112;24.738;2023-08-20T12:15:25;3.50;;;2.90;;
9888;SDS011;4983;42.112;24.738;2023-08-20T12:17:59;2.70;;;2.50;;
9888;SDS011;4983;42.112;24.738;2023-08-20T12:20:29;5.77;;;2.57;;
9888;SDS011;4983;42.112;24.738;2023-08-20T12:22:59;3.00;;;2.70;;
9888;SDS011;4983;42.112;24.738;2023-08-20T12:25:29;3.90;;;2.70;;
9888;SDS011;4983;42.112;24.738;2023-08-20T12:27:57;3.50;;;2.80;;
9888;SDS011;4983;42.112;24.738;2023-08-20T12:30:25;4.27;;;2.47;;
9888;SDS011;4983;42.112;24.738;2023-08-20T12:32:52;3.10;;;2.80;;
9888;SDS011;4983;42.112;24.738;2023-08-20T12:35:20;3.13;;;2.80;;
9888;SDS011;4983;42.112;24.738;2023-08-20T12:37:47;4.23;;;2.60;;
9888;SDS011;4983;42.112;24.738;2023-08-20T12:40:14;4.00;;;2.53;;
9888;SDS011;4983;42.112;24.738;2023-08-20T12:42:43;3.17;;;2.50;;
9888;SDS011;4983;42.112;24.738;2023-08-20T12:45:10;3.17;;;2.70;;
9888;SDS011;4983;42.112;24.738;2023-08-20T12:47:40;3.47;;;2.50;;
9888;SDS011;4983;42.112;24.738;2023-08-20T12:50:07;3.17;;;2.50;;
9888;SDS011;4983;42.112;24.738;2023-08-20T12:52:35;3.13;;;2.70;;
9888;SDS011;4983;42.112;24.738;2023-08-20T12:55:04;4.20;;;2.60;;
9888;SDS011;4983;42.112;24.738;2023-08-20T12:57:33;3.37;;;2.47;;
9888;SDS011;4983;42.112;24.738;2023-08-20T13:00:01;2.80;;;2.60;;
9888;SDS011;4983;42.112;24.738;2023-08-20T13:02:33;3.00;;;2.70;;
9888;SDS011;4983;42.112;24.738;2023-08-20T13:05:02;2.57;;;2.37;;
9888;SDS011;4983;42.112;24.738;2023-08-20T13:07:30;3.10;;;2.70;;
9888;SDS011;4983;42.112;24.738;2023-08-20T13:09:58;3.20;;;2.63;;
9888;SDS011;4983;42.112;24.738;2023-08-20T13:12:26;4.27;;;2.60;;
9888;SDS011;4983;42.112;24.738;2023-08-20T13:14:54;4.90;;;2.80;;
9888;SDS011;4983;42.112;24.738;2023-08-20T13:17:22;4.77;;;2.40;;
9888;SDS011;4983;42.112;24.738;2023-08-20T13:19:49;2.80;;;2.50;;
9888;SDS011;4983;42.112;24.738;2023-08-20T13:22:17;3.13;;;2.30;;
9888;SDS011;4983;42.112;24.738;2023-08-20T13:24:44;2.93;;;2.43;;
9888;SDS011;4983;42.112;24.738;2023-08-20T13:27:11;2.93;;;2.63;;
9888;SDS011;4983;42.112;24.738;2023-08-20T13:29:38;4.17;;;2.60;;
9888;SDS011;4983;42.112;24.738;2023-08-20T13:32:05;3.00;;;2.70;;
9888;SDS011;4983;42.112;24.738;2023-08-20T13:34:32;2.50;;;2.30;;
9888;SDS011;4983;42.112;24.738;2023-08-20T13:36:59;6.40;;;2.77;;
9888;SDS011;4983;42.112;24.738;2023-08-20T13:39:27;3.10;;;2.80;;
9888;SDS011;4983;42.112;24.738;2023-08-20T13:41:55;4.83;;;2.40;;
9888;SDS011;4983;42.112;24.738;2023-08-20T13:44:23;2.90;;;2.60;;
9888;SDS011;4983;42.112;24.738;2023-08-20T13:46:50;3.13;;;2.40;;
9888;SDS011;4983;42.112;24.738;2023-08-20T13:49:17;3.00;;;2.37;;
9888;SDS011;4983;42.112;24.738;2023-08-20T13:51:43;2.73;;;2.53;;
9888;SDS011;4983;42.112;24.738;2023-08-20T13:54:11;2.50;;;2.27;;
9888;SDS011;4983;42.112;24.738;2023-08-20T13:56:39;3.00;;;2.57;;
9888;SDS011;4983;42.112;24.738;2023-08-20T13:59:06;3.70;;;2.10;;
9888;SDS011;4983;42.112;24.738;2023-08-20T14:01:36;2.93;;;2.70;;
9888;SDS011;4983;42.112;24.738;2023-08-20T14:04:03;2.93;;;2.50;;
9888;SDS011;4983;42.112;24.738;2023-08-20T14:06:31;5.07;;;2.57;;
9888;SDS011;4983;42.112;24.738;2023-08-20T14:08:58;2.93;;;2.63;;
9888;SDS011;4983;42.112;24.738;2023-08-20T14:11:25;2.87;;;2.50;;
9888;SDS011;4983;42.112;24.738;2023-08-20T14:13:53;3.10;;;2.50;;
9888;SDS011;4983;42.112;24.738;2023-08-20T14:16:20;2.60;;;2.30;;
9888;SDS011;4983;42.112;24.738;2023-08-20T14:18:47;6.97;;;2.77;;
9888;SDS011;4983;42.112;24.738;2023-08-20T14:21:16;3.93;;;2.60;;
9888;SDS011;4983;42.112;24.738;2023-08-20T14:23:45;4.27;;;2.60;;
9888;SDS011;4983;42.112;24.738;2023-08-20T14:26:12;5.57;;;2.37;;
9888;SDS011;4983;42.112;24.738;2023-08-20T14:28:39;5.30;;;2.80;;
9888;SDS011;4983;42.112;24.738;2023-08-20T14:31:07;5.23;;;2.13;;
9888;SDS011;4983;42.112;24.738;2023-08-20T14:33:34;2.80;;;2.50;;
9888;SDS011;4983;42.112;24.738;2023-08-20T14:36:03;2.60;;;2.40;;
9888;SDS011;4983;42.112;24.738;2023-08-20T14:38:30;4.43;;;2.60;;
9888;SDS011;4983;42.112;24.738;2023-08-20T14:40:59;2.73;;;2.53;;
9888;SDS011;4983;42.112;24.738;2023-08-20T14:43:26;3.50;;;2.77;;
9888;SDS011;4983;42.112;24.738;2023-08-20T14:45:53;4.67;;;2.70;;
9888;SDS011;4983;42.112;24.738;2023-08-20T14:48:22;3.00;;;2.37;;
9888;SDS011;4983;42.112;24.738;2023-08-20T14:50:49;2.97;;;2.40;;
9888;SDS011;4983;42.112;24.738;2023-08-20T14:53:17;5.50;;;3.30;;
9888;SDS011;4983;42.112;24.738;2023-08-20T14:55:44;3.00;;;2.63;;
9888;SDS011;4983;42.112;24.738;2023-08-20T14:58:12;3.57;;;2.37;;
9888;SDS011;4983;42.112;24.738;2023-08-20T15:00:39;2.93;;;2.63;;
9888;SDS011;4983;42.112;24.738;2023-08-20T15:03:06;2.90;;;2.70;;
9888;SDS011;4983;42.112;24.738;2023-08-20T15:05:35;4.20;;;2.60;;
9888;SDS011;4983;42.112;24.738;2023-08-20T15:08:02;3.77;;;2.50;;